Capitol Logistics 986

Operating for DHL



EGNX
East Midlands Airport
Derby, GB
EBLG
Liège Airport
Liege, BE

Activity Log

Date Flight Route Aircraft Duration
03/16/2022 CPX986 DTY3N DTY UM605 BENSU Q70 KOK KOK6X A30F 1h 07m
01/13/2022 CPX986 DTY3N DTY UM605 BENSU Q70 KOK KOK6X B738 1h 44m
04/24/2020 CPX1130 DTY4P DTY BPK L10 DVR UL9 KONAN UL607 KOK KOK5X B738 1h 09m
02/16/2020 CPX1130 EGNX DTY3N DTY BPK L10 DVR UL9 KONAN UL607 KOK KOK5X EBLG B738 1h 08m

Route Details

Aircraft Information
Group: European Fleet
Types: A30F,A31F,B738
Route Data
Demand: M
Distance: 284nm
Duration: 1h 19m
Recm'd Route: DTY3N DTY UM605 BENSU Q70 KOK KOK6X
Origin Wx: EGNX 270520Z 26011KT CAVOK 09/04 Q1023
Dest. Wx: EBLG 270520Z 25011KT 7000 -DZ SCT007 BKN010 12/11 Q1021 TEMPO 3500 BR -DZ BKN007
Notes:

Financial History
Total Freight: 200,563lbs
Average Load: 50,141lbs/flt
Fuel Used: 35,467lbs
Avg. Fuel Used: 8,867lbs/flt
Fuel Expense: $20,468
Avg. Fuel Expense: $5,117
Avg. Fuel Cost: $0.63/lbs
Total Gross Income: $443,368
Pilot Pay: $666
Total Expenses: $53,987
Total Revenue: $368,193
Average Revenue: $110,841.98